createdAt,value
2022-07-26T00:01:19.732Z,42.69
2022-07-26T00:03:49.848Z,43.13
2022-07-26T00:06:18.915Z,42.83
2022-07-26T00:08:48.044Z,43.73
2022-07-26T00:11:17.167Z,44.50
2022-07-26T00:13:46.180Z,45.48
2022-07-26T00:16:14.969Z,44.06
2022-07-26T00:18:43.143Z,44.97
2022-07-26T00:21:11.856Z,45.05
2022-07-26T00:23:40.307Z,44.85
2022-07-26T00:26:08.646Z,44.93
2022-07-26T00:28:37.829Z,44.85
2022-07-26T00:31:06.343Z,44.99
2022-07-26T00:33:34.866Z,45.65
2022-07-26T00:36:03.298Z,44.53
2022-07-26T00:38:31.791Z,45.05
2022-07-26T00:40:59.978Z,45.30
2022-07-26T00:43:28.113Z,45.16
2022-07-26T00:45:57.411Z,45.82
2022-07-26T00:48:26.135Z,44.07
2022-07-26T00:50:55.453Z,44.14
2022-07-26T00:53:24.072Z,43.30
2022-07-26T00:55:53.465Z,43.75
2022-07-26T00:58:21.671Z,44.86
2022-07-26T01:00:50.229Z,45.42
2022-07-26T01:03:18.483Z,45.03
2022-07-26T01:05:46.622Z,45.68
2022-07-26T01:08:15.089Z,45.11
2022-07-26T01:10:43.863Z,45.71
2022-07-26T01:13:13.247Z,44.72
2022-07-26T01:15:41.691Z,44.56
2022-07-26T01:18:09.908Z,44.45
2022-07-26T01:20:38.650Z,45.94
2022-07-26T01:23:08.194Z,45.99
2022-07-26T01:25:43.364Z,45.11
2022-07-26T01:28:19.777Z,45.00
2022-07-26T01:30:49.740Z,44.40
2022-07-26T01:33:18.506Z,45.31
2022-07-26T01:35:46.594Z,45.86
2022-07-26T01:38:14.785Z,46.87
2022-07-26T01:40:43.466Z,47.06
2022-07-26T01:43:11.626Z,47.28
2022-07-26T01:45:39.853Z,47.00
2022-07-26T01:48:11.610Z,47.08
2022-07-26T01:50:39.728Z,47.97
2022-07-26T01:53:07.973Z,47.85
2022-07-26T01:55:37.322Z,47.36
2022-07-26T01:58:06.474Z,48.18
2022-07-26T02:00:34.613Z,48.93
2022-07-26T02:03:03.739Z,48.93
2022-07-26T02:05:32.086Z,47.97
2022-07-26T02:08:00.664Z,48.40
2022-07-26T02:10:47.973Z,46.31
2022-07-26T02:13:16.239Z,46.55
2022-07-26T02:15:44.699Z,46.62
2022-07-26T02:18:13.165Z,47.00
2022-07-26T02:20:41.320Z,47.01
2022-07-26T02:23:09.819Z,47.85
2022-07-26T02:25:38.077Z,47.71
2022-07-26T02:28:06.245Z,47.51
2022-07-26T02:30:34.814Z,47.46
2022-07-26T02:33:03.441Z,48.37
2022-07-26T02:35:32.086Z,48.74
2022-07-26T02:38:09.323Z,48.36
2022-07-26T02:40:39.907Z,49.35
2022-07-26T02:43:09.150Z,48.74
2022-07-26T02:45:37.974Z,48.98
2022-07-26T02:48:06.861Z,48.01
2022-07-26T02:50:35.709Z,48.14
2022-07-26T02:53:04.166Z,48.62
2022-07-26T02:55:32.295Z,49.07
2022-07-26T02:58:00.953Z,50.41
2022-07-26T03:00:29.577Z,49.36
2022-07-26T03:02:57.788Z,48.89
2022-07-26T03:05:26.298Z,49.46
2022-07-26T03:07:54.371Z,49.10
2022-07-26T03:10:22.567Z,48.87
2022-07-26T03:12:51.016Z,49.54
2022-07-26T03:15:19.325Z,50.15
2022-07-26T03:17:47.540Z,50.70
2022-07-26T03:20:16.147Z,50.80
2022-07-26T03:22:44.405Z,49.86
2022-07-26T03:25:12.779Z,50.25
2022-07-26T03:27:41.289Z,48.56
2022-07-26T03:30:10.097Z,48.28
2022-07-26T03:32:38.638Z,47.77
2022-07-26T03:35:08.175Z,47.95
2022-07-26T03:37:46.260Z,48.84
2022-07-26T03:40:16.575Z,49.13
2022-07-26T03:42:46.222Z,49.10
2022-07-26T03:45:16.124Z,51.37
2022-07-26T03:47:44.330Z,50.02
2022-07-26T03:50:13.882Z,49.28
2022-07-26T03:52:42.577Z,52.56
2022-07-26T03:55:29.352Z,50.81
2022-07-26T03:57:57.848Z,50.69
2022-07-26T04:00:26.029Z,51.73
2022-07-26T04:02:54.796Z,52.31
2022-07-26T04:05:23.495Z,53.16
2022-07-26T04:07:53.187Z,54.12
2022-07-26T04:10:23.407Z,53.71
2022-07-26T04:12:51.600Z,51.86
2022-07-26T04:15:21.300Z,52.19
2022-07-26T04:17:50.109Z,50.95
2022-07-26T04:20:18.336Z,52.09
2022-07-26T04:22:46.642Z,51.49
2022-07-26T04:25:15.435Z,51.33
2022-07-26T04:27:43.566Z,51.83
2022-07-26T04:30:15.042Z,50.67
2022-07-26T04:32:46.500Z,49.51
2022-07-26T04:35:15.953Z,50.65
2022-07-26T04:37:45.594Z,50.58
2022-07-26T04:40:22.234Z,50.05
2022-07-26T04:42:52.518Z,49.17
2022-07-26T04:45:21.294Z,48.71
2022-07-26T04:47:50.552Z,48.33
2022-07-26T04:50:20.599Z,47.94
2022-07-26T04:52:52.731Z,48.67
2022-07-26T04:55:21.736Z,47.13
2022-07-26T04:57:50.644Z,47.09
2022-07-26T05:00:24.252Z,47.75
2022-07-26T05:02:55.997Z,48.51
2022-07-26T05:05:25.476Z,46.45
2022-07-26T05:07:57.533Z,45.37
2022-07-26T05:10:36.772Z,44.09
2022-07-26T05:13:06.595Z,43.52
2022-07-26T05:15:36.917Z,44.12
2022-07-26T05:18:10.564Z,43.78
2022-07-26T05:20:41.808Z,43.49
2022-07-26T05:23:10.636Z,42.48
2022-07-26T05:25:39.308Z,41.37
2022-07-26T05:28:07.966Z,40.65
2022-07-26T05:30:37.063Z,40.61
2022-07-26T05:33:05.169Z,39.85
2022-07-26T05:35:33.328Z,39.84
2022-07-26T05:38:01.917Z,39.89
2022-07-26T05:40:30.241Z,39.61
2022-07-26T05:42:58.330Z,40.14
2022-07-26T05:45:26.977Z,42.02
2022-07-26T05:47:55.764Z,45.25
2022-07-26T05:50:23.897Z,47.14
2022-07-26T05:52:52.355Z,47.69
2022-07-26T05:55:20.675Z,47.69
2022-07-26T05:57:49.680Z,47.96
2022-07-26T06:00:19.118Z,47.67
2022-07-26T06:02:47.637Z,47.95
2022-07-26T06:05:16.003Z,48.14
2022-07-26T06:07:44.447Z,48.13
2022-07-26T06:10:12.879Z,48.73
2022-07-26T06:12:41.119Z,47.99
2022-07-26T06:15:15.426Z,48.15
2022-07-26T06:17:44.529Z,48.19
2022-07-26T06:20:12.894Z,51.32
2022-07-26T06:22:41.037Z,56.91
2022-07-26T06:25:09.783Z,56.60
2022-07-26T06:27:38.234Z,57.55
2022-07-26T06:30:08.094Z,55.61
2022-07-26T06:32:37.250Z,53.96
2022-07-26T06:35:05.874Z,52.26
2022-07-26T06:37:37.123Z,51.71
2022-07-26T06:40:08.167Z,50.11
2022-07-26T06:42:36.803Z,51.57
2022-07-26T06:45:06.004Z,49.88
2022-07-26T06:47:35.536Z,49.71
2022-07-26T06:50:04.199Z,49.06
2022-07-26T06:52:33.002Z,48.72
2022-07-26T06:55:02.684Z,48.11
2022-07-26T06:57:31.136Z,52.68
2022-07-26T06:59:59.194Z,50.15
2022-07-26T07:02:27.914Z,48.39
2022-07-26T07:04:56.042Z,47.96
2022-07-26T07:07:24.277Z,48.01
2022-07-26T07:09:56.581Z,48.05
2022-07-26T07:12:24.732Z,49.75
2022-07-26T07:14:52.841Z,46.15
2022-07-26T07:17:21.719Z,44.83
2022-07-26T07:19:50.033Z,46.92
2022-07-26T07:22:18.085Z,45.88
2022-07-26T07:24:46.717Z,44.33
2022-07-26T07:27:16.694Z,45.30
2022-07-26T07:29:45.165Z,44.99
2022-07-26T07:32:15.874Z,46.17
2022-07-26T07:34:49.092Z,46.80
2022-07-26T07:37:19.898Z,43.73
2022-07-26T07:39:50.625Z,44.02
2022-07-26T07:42:19.894Z,43.92
2022-07-26T07:44:50.010Z,43.22
2022-07-26T07:47:18.192Z,42.92
2022-07-26T07:49:46.933Z,42.80
2022-07-26T07:52:15.049Z,43.24
2022-07-26T07:54:43.609Z,43.83
2022-07-26T07:57:12.193Z,42.26
2022-07-26T07:59:42.883Z,44.33
2022-07-26T08:02:12.936Z,45.52
2022-07-26T08:04:41.742Z,45.96
2022-07-26T08:07:09.914Z,43.63
2022-07-26T08:09:38.042Z,46.11
2022-07-26T08:12:11.683Z,43.83
2022-07-26T08:14:39.960Z,43.39
2022-07-26T08:17:09.713Z,43.13
2022-07-26T08:19:41.494Z,44.52
2022-07-26T08:22:11.320Z,45.04
2022-07-26T08:24:40.633Z,44.61
2022-07-26T08:27:08.825Z,44.60
2022-07-26T08:29:37.081Z,44.41
2022-07-26T08:32:06.220Z,47.12
2022-07-26T08:34:34.437Z,45.52
2022-07-26T08:37:18.341Z,44.46
2022-07-26T08:39:47.839Z,46.92
2022-07-26T08:42:22.459Z,47.11
2022-07-26T08:44:52.625Z,48.21
2022-07-26T08:47:39.835Z,49.14
2022-07-26T08:50:09.044Z,49.86
2022-07-26T08:52:43.401Z,49.44
2022-07-26T08:55:16.900Z,50.85
2022-07-26T08:57:45.549Z,49.23
2022-07-26T09:00:22.656Z,49.54
2022-07-26T09:02:52.397Z,50.17
2022-07-26T09:05:27.723Z,49.63
2022-07-26T09:07:57.149Z,49.16
2022-07-26T09:10:26.489Z,49.04
2022-07-26T09:12:56.577Z,49.56
2022-07-26T09:15:26.958Z,47.41
2022-07-26T09:17:57.874Z,46.91
2022-07-26T09:20:30.984Z,46.36
2022-07-26T09:23:02.891Z,46.51
2022-07-26T09:25:35.785Z,49.52
2022-07-26T09:28:21.110Z,48.71
2022-07-26T09:31:00.009Z,47.63
2022-07-26T09:33:47.516Z,48.67
2022-07-26T09:36:16.788Z,49.44
2022-07-26T09:38:46.505Z,49.40
2022-07-26T09:41:35.818Z,49.72
2022-07-26T09:44:06.711Z,49.53
2022-07-26T09:46:36.469Z,50.54
2022-07-26T09:49:19.345Z,51.39
2022-07-26T09:51:53.522Z,54.43
2022-07-26T09:54:30.999Z,55.39
2022-07-26T09:56:59.529Z,56.73
2022-07-26T09:59:29.671Z,58.62
2022-07-26T10:01:59.475Z,61.47
2022-07-26T10:04:28.056Z,66.12
2022-07-26T10:06:58.235Z,71.89
2022-07-26T10:09:34.356Z,75.40
2022-07-26T10:12:07.098Z,78.90
2022-07-26T10:14:51.493Z,84.48
2022-07-26T10:17:31.398Z,86.06
2022-07-26T10:20:02.461Z,86.36
2022-07-26T10:22:43.569Z,87.52
2022-07-26T10:25:17.901Z,91.14
2022-07-26T10:27:56.122Z,93.93
2022-07-26T10:30:33.829Z,93.02
2022-07-26T10:33:10.357Z,93.34
2022-07-26T10:35:41.308Z,94.09
2022-07-26T10:38:13.145Z,95.91
2022-07-26T10:40:58.895Z,95.35
2022-07-26T10:43:43.497Z,91.02
2022-07-26T10:46:18.201Z,95.08
2022-07-26T10:49:00.081Z,97.90
2022-07-26T10:51:33.717Z,96.42
2022-07-26T10:54:07.875Z,93.41
2022-07-26T10:56:36.881Z,89.79
2022-07-26T10:59:06.321Z,89.87
2022-07-26T11:01:40.864Z,90.50
2022-07-26T11:04:19.681Z,91.66
2022-07-26T11:06:48.908Z,90.88
2022-07-26T11:09:21.158Z,89.87
2022-07-26T11:11:51.962Z,89.23
2022-07-26T11:14:20.343Z,86.08
2022-07-26T11:16:50.400Z,88.39
2022-07-26T11:19:21.071Z,86.01
2022-07-26T11:21:58.956Z,88.71
2022-07-26T11:24:28.786Z,89.00
2022-07-26T11:27:03.699Z,88.55
2022-07-26T11:29:38.167Z,88.50
2022-07-26T11:32:25.381Z,89.12
2022-07-26T11:35:01.804Z,89.76
2022-07-26T11:37:31.026Z,90.26
2022-07-26T11:39:59.119Z,87.58
2022-07-26T11:42:27.448Z,88.47
2022-07-26T11:44:55.976Z,88.49
2022-07-26T11:47:26.369Z,87.10
2022-07-26T11:52:43.821Z,86.05
2022-07-26T11:55:12.625Z,82.93
2022-07-26T11:57:40.960Z,84.33
2022-07-26T12:00:09.997Z,82.95
2022-07-26T12:02:39.870Z,86.05
2022-07-26T12:05:18.393Z,83.30
2022-07-26T12:08:02.851Z,83.50
2022-07-26T12:10:31.837Z,88.63
2022-07-26T12:13:10.948Z,88.45
2022-07-26T12:15:51.362Z,87.66
2022-07-26T12:18:24.806Z,86.03
2022-07-26T12:21:03.618Z,87.46
2022-07-26T12:23:48.691Z,79.99
2022-07-26T12:26:27.745Z,76.24
2022-07-26T12:28:57.870Z,78.56
2022-07-26T12:31:32.066Z,79.67
2022-07-26T12:34:00.493Z,79.68
2022-07-26T12:36:30.172Z,78.55
2022-07-26T12:39:00.211Z,76.56
2022-07-26T12:41:36.271Z,77.85
2022-07-26T12:44:11.922Z,78.56
2022-07-26T12:46:41.090Z,78.04
2022-07-26T12:49:09.517Z,77.55
2022-07-26T12:51:37.723Z,78.34
2022-07-26T12:54:06.849Z,76.96
2022-07-26T12:56:35.412Z,78.21
2022-07-26T12:59:03.783Z,77.68
2022-07-26T13:01:33.264Z,78.06
2022-07-26T13:04:01.655Z,77.57
2022-07-26T13:06:30.041Z,77.15
2022-07-26T13:08:58.736Z,75.71
2022-07-26T13:11:27.054Z,74.83
2022-07-26T13:13:55.879Z,74.34
2022-07-26T13:16:24.510Z,71.97
2022-07-26T13:18:52.830Z,73.84
2022-07-26T13:21:21.085Z,73.41
2022-07-26T13:23:49.758Z,73.03
2022-07-26T13:26:17.901Z,74.41
2022-07-26T13:28:49.572Z,72.82
2022-07-26T13:31:18.898Z,74.39
2022-07-26T13:33:47.094Z,71.68
2022-07-26T13:36:15.346Z,71.24
2022-07-26T13:38:44.073Z,72.44
2022-07-26T13:41:12.399Z,71.11
2022-07-26T13:43:40.602Z,72.38
2022-07-26T13:46:09.157Z,72.23
2022-07-26T13:48:37.446Z,70.91
2022-07-26T13:51:06.032Z,70.55
2022-07-26T13:53:36.312Z,69.87
2022-07-26T13:56:20.507Z,70.37
2022-07-26T13:58:49.215Z,71.66
2022-07-26T14:01:17.529Z,72.97
2022-07-26T14:03:46.001Z,71.86
2022-07-26T14:06:14.079Z,71.50
2022-07-26T14:08:45.037Z,71.28
2022-07-26T14:11:13.587Z,70.96
2022-07-26T14:13:41.800Z,70.85
2022-07-26T14:16:10.096Z,70.39
2022-07-26T14:18:38.675Z,68.32
2022-07-26T14:21:10.526Z,69.44
2022-07-26T14:23:39.871Z,67.50
2022-07-26T14:26:08.114Z,67.24
2022-07-26T14:28:36.252Z,67.78
2022-07-26T14:31:04.740Z,68.67
2022-07-26T14:33:33.053Z,67.49
2022-07-26T14:36:02.903Z,69.70
2022-07-26T14:38:31.529Z,66.75
2022-07-26T14:41:01.146Z,67.95
2022-07-26T14:43:29.270Z,68.26
2022-07-26T14:45:57.849Z,68.46
2022-07-26T14:48:51.708Z,69.75
2022-07-26T14:51:14.722Z,68.63
2022-07-26T14:53:43.276Z,68.82
2022-07-26T14:56:11.462Z,69.62
2022-07-26T14:58:39.857Z,70.35
2022-07-26T15:01:08.559Z,70.20
2022-07-26T15:03:36.849Z,69.43
2022-07-26T15:06:05.278Z,69.13
2022-07-26T15:08:33.577Z,69.50
2022-07-26T15:11:01.838Z,69.17
2022-07-26T15:13:30.331Z,69.30
2022-07-26T15:15:58.899Z,68.91
2022-07-26T15:18:27.021Z,69.58
2022-07-26T15:20:55.416Z,69.94
2022-07-26T15:23:24.180Z,69.97
2022-07-26T15:25:52.718Z,69.27
2022-07-26T15:28:21.239Z,70.35
2022-07-26T15:30:50.101Z,69.57
2022-07-26T15:33:20.104Z,67.78
2022-07-26T15:35:49.547Z,67.80
2022-07-26T15:38:17.718Z,67.96
2022-07-26T15:40:45.929Z,67.06
2022-07-26T15:43:22.164Z,67.33
2022-07-26T15:45:55.057Z,66.71
2022-07-26T15:48:23.780Z,66.61
2022-07-26T15:50:52.034Z,66.99
2022-07-26T15:53:20.194Z,66.06
2022-07-26T15:55:48.819Z,67.31
2022-07-26T15:58:17.004Z,67.71
2022-07-26T16:00:45.209Z,66.21
2022-07-26T16:03:14.075Z,66.94
2022-07-26T16:05:42.203Z,67.69
2022-07-26T16:08:10.429Z,67.01
2022-07-26T16:10:38.986Z,66.72
2022-07-26T16:13:07.065Z,66.63
2022-07-26T16:15:35.154Z,66.63
2022-07-26T16:18:06.660Z,66.66
2022-07-26T16:20:35.783Z,66.39
2022-07-26T16:23:04.307Z,66.46
2022-07-26T16:25:32.575Z,65.33
2022-07-26T16:28:00.744Z,65.56
2022-07-26T16:30:29.347Z,63.56
2022-07-26T16:32:57.543Z,63.99
2022-07-26T16:35:25.694Z,64.61
2022-07-26T16:37:54.256Z,64.91
2022-07-26T16:40:22.559Z,65.04
2022-07-26T16:42:50.683Z,65.58
2022-07-26T16:45:19.310Z,63.50
2022-07-26T16:47:47.585Z,63.00
2022-07-26T16:50:27.409Z,62.58
2022-07-26T16:52:56.655Z,62.15
2022-07-26T16:55:24.963Z,62.29
2022-07-26T16:57:53.125Z,62.61
2022-07-26T17:00:22.451Z,61.98
2022-07-26T17:02:50.862Z,62.48
2022-07-26T17:05:18.952Z,62.67
2022-07-26T17:07:47.590Z,60.11
2022-07-26T17:10:15.726Z,60.92
2022-07-26T17:12:43.977Z,59.87
2022-07-26T17:15:12.834Z,60.56
2022-07-26T17:17:44.639Z,62.32
2022-07-26T17:20:16.036Z,61.63
2022-07-26T17:22:44.205Z,61.67
2022-07-26T17:25:12.257Z,63.18
2022-07-26T17:27:40.970Z,63.57
2022-07-26T17:30:10.026Z,62.31
2022-07-26T17:32:38.601Z,62.84
2022-07-26T17:35:08.476Z,63.90
2022-07-26T17:37:36.908Z,64.85
2022-07-26T17:40:07.766Z,64.46
2022-07-26T17:42:39.832Z,63.57
2022-07-26T17:45:08.596Z,65.39
2022-07-26T17:47:37.178Z,65.19
2022-07-26T17:52:55.221Z,65.57
2022-07-26T17:55:24.018Z,66.22
2022-07-26T17:57:52.762Z,64.99
2022-07-26T18:00:23.080Z,65.84
2022-07-26T18:02:51.585Z,66.36
2022-07-26T18:05:20.704Z,65.52
2022-07-26T18:07:49.880Z,66.21
2022-07-26T18:10:19.613Z,66.84
2022-07-26T18:12:47.724Z,66.54
2022-07-26T18:15:16.068Z,67.43
2022-07-26T18:17:44.610Z,68.45
2022-07-26T18:20:13.139Z,66.94
2022-07-26T18:22:41.227Z,66.99
2022-07-26T18:25:10.004Z,68.01
2022-07-26T18:27:38.803Z,67.58
2022-07-26T18:30:07.350Z,68.70
2022-07-26T18:32:35.811Z,68.77
2022-07-26T18:35:04.261Z,69.08
2022-07-26T18:37:32.842Z,69.47
2022-07-26T18:40:01.921Z,69.81
2022-07-26T18:42:30.414Z,69.30
2022-07-26T18:44:58.631Z,70.34
2022-07-26T18:47:27.463Z,69.72
2022-07-26T18:49:55.611Z,70.18
2022-07-26T18:52:31.543Z,70.97
2022-07-26T18:55:02.778Z,71.51
2022-07-26T18:57:31.072Z,71.49
2022-07-26T18:59:59.520Z,69.96
2022-07-26T19:02:28.105Z,71.25
2022-07-26T19:04:56.258Z,70.32
2022-07-26T19:07:24.753Z,70.81
2022-07-26T19:09:58.199Z,71.10
2022-07-26T19:14:55.887Z,69.89
2022-07-26T19:17:23.962Z,71.21
2022-07-26T19:19:53.092Z,70.94
2022-07-26T19:22:22.641Z,72.10
2022-07-26T19:24:51.250Z,72.48
2022-07-26T19:27:19.848Z,73.01
2022-07-26T19:29:48.904Z,72.46
2022-07-26T19:32:17.422Z,73.62
2022-07-26T19:34:46.028Z,73.06
2022-07-26T19:37:19.818Z,73.58
2022-07-26T19:39:50.218Z,74.03
2022-07-26T19:42:19.988Z,71.59
2022-07-26T19:44:48.521Z,72.34
2022-07-26T19:47:16.810Z,73.06
2022-07-26T19:49:45.007Z,72.67
2022-07-26T19:52:13.644Z,71.73
2022-07-26T19:54:41.912Z,72.73
2022-07-26T19:57:10.076Z,70.63
2022-07-26T19:59:38.638Z,71.29
2022-07-26T20:02:07.139Z,72.46
2022-07-26T20:04:35.812Z,72.28
2022-07-26T20:07:04.366Z,73.13
2022-07-26T20:09:32.845Z,72.83
2022-07-26T20:12:01.554Z,71.02
2022-07-26T20:14:29.733Z,69.21
2022-07-26T20:16:58.316Z,70.85
2022-07-26T20:19:28.175Z,69.87
2022-07-26T20:21:56.609Z,68.83
2022-07-26T20:24:25.596Z,68.65
2022-07-26T20:26:54.095Z,68.60
2022-07-26T20:29:22.285Z,68.30
2022-07-26T20:31:50.478Z,68.90
2022-07-26T20:34:18.965Z,68.92
2022-07-26T20:36:47.663Z,67.46
2022-07-26T20:39:15.958Z,66.83
2022-07-26T20:41:44.409Z,67.70
2022-07-26T20:44:14.345Z,68.24
2022-07-26T20:46:42.684Z,68.30
2022-07-26T20:49:11.555Z,67.67
2022-07-26T20:51:40.370Z,66.43
2022-07-26T20:54:10.369Z,67.59
2022-07-26T20:56:38.968Z,68.04
2022-07-26T20:59:07.216Z,68.16
2022-07-26T21:01:35.664Z,67.52
2022-07-26T21:04:04.266Z,66.25
2022-07-26T21:06:33.652Z,66.67
2022-07-26T21:09:09.001Z,66.18
2022-07-26T21:11:39.304Z,65.97
2022-07-26T21:14:07.437Z,67.00
2022-07-26T21:16:36.973Z,67.20
2022-07-26T21:19:06.067Z,66.88
2022-07-26T21:21:36.450Z,66.04
2022-07-26T21:24:06.358Z,66.79
2022-07-26T21:26:34.864Z,67.10
2022-07-26T21:29:03.341Z,65.79
2022-07-26T21:31:31.750Z,66.33
2022-07-26T21:34:00.252Z,65.61
2022-07-26T21:36:28.402Z,64.51
2022-07-26T21:38:56.529Z,63.87
2022-07-26T21:41:25.032Z,64.73
2022-07-26T21:43:53.104Z,64.11
2022-07-26T21:46:21.248Z,63.59
2022-07-26T21:48:49.774Z,62.71
2022-07-26T21:51:18.408Z,61.93
2022-07-26T21:53:46.712Z,60.97
2022-07-26T21:56:15.419Z,60.26
2022-07-26T21:58:43.637Z,59.15
2022-07-26T22:01:12.745Z,60.38
2022-07-26T22:03:42.315Z,59.34
2022-07-26T22:06:11.240Z,59.54
2022-07-26T22:08:39.925Z,58.98
2022-07-26T22:11:08.905Z,58.24
2022-07-26T22:13:37.915Z,58.60
2022-07-26T22:16:06.852Z,58.60
2022-07-26T22:18:35.332Z,58.44
2022-07-26T22:21:03.937Z,57.65
2022-07-26T22:23:32.124Z,57.55
2022-07-26T22:26:02.285Z,56.77
2022-07-26T22:28:31.781Z,56.26
2022-07-26T22:31:00.428Z,55.61
2022-07-26T22:33:28.926Z,54.58
2022-07-26T22:35:57.127Z,55.81
2022-07-26T22:38:25.573Z,55.34
2022-07-26T22:40:54.265Z,54.68
2022-07-26T22:43:22.395Z,54.46
2022-07-26T22:45:50.863Z,53.98
2022-07-26T22:48:19.534Z,53.48
2022-07-26T22:50:47.746Z,53.08
2022-07-26T22:53:16.500Z,53.05
2022-07-26T22:55:45.187Z,54.07
2022-07-26T22:58:13.721Z,54.00
2022-07-26T23:00:42.257Z,54.59
2022-07-26T23:03:19.772Z,54.45
2022-07-26T23:05:50.611Z,54.13
2022-07-26T23:11:09.163Z,53.14
2022-07-26T23:13:37.590Z,52.90
2022-07-26T23:16:05.974Z,53.09
2022-07-26T23:18:35.284Z,53.37
2022-07-26T23:21:04.364Z,51.90
2022-07-26T23:23:32.938Z,51.77
2022-07-26T23:26:01.818Z,51.33
2022-07-26T23:28:35.685Z,51.22
2022-07-26T23:31:11.389Z,51.16
2022-07-26T23:33:50.492Z,51.72
2022-07-26T23:36:26.511Z,51.42
2022-07-26T23:38:59.166Z,50.74
2022-07-26T23:41:28.182Z,51.31
2022-07-26T23:43:57.006Z,50.63
2022-07-26T23:46:26.648Z,50.92
2022-07-26T23:48:55.505Z,50.82
2022-07-26T23:51:24.710Z,50.59
2022-07-26T23:53:53.296Z,50.59
2022-07-26T23:56:21.814Z,51.32
2022-07-26T23:58:50.919Z,50.92
